Duarte, CA (91009)

6:46 AM PDT on October 21, 2014 (GMT -0700)
NE Duarte, Near Rancho Duarte Golf Course | Change Station
CLOSE
Current Station
Personal Weather Station
Location: Duarte, CA
Elevation: 587 ft
Nearby Weather Stations

Elev 587 ft 34.14 °N, 117.95 °W | Updated 9 minutes ago

Partly Cloudy
Partly Cloudy
62.4 °F
Feels Like 62.4 °F
N
4.0
Wind Variable Wind from ENE
Gusts 6.7 mph

Today
High -- | Low -- °F
--% Chance of Precip.
Yesterday
High -- | Low -- °F
Precip. -- in
7:02 AM 6:10 PM
Waning Crescent, 5% visible
Pressure 29.89 in
Visibility 7.0 miles
Clouds Mostly Cloudy 1400 ft
Dew Point 52 °F
Humidity 70%
Rainfall -999.00 in
Snow Depth Not available.
UV 0 out of 12
Pollen 3.90 out of 12
PM2.5 Moderate
Flu Activity Sporadic
METAR KCQT 211247Z AUTO 00000KT 7SM BKN014 19/16 A2989 RMK AO2 SLP120 T01890156

More Conditions Fewer Conditions

Pressure 29.89 in
Visibility 7.0 miles
Clouds Mostly Cloudy 1400 ft
Dew Point 52 °F
Humidity 70%
Rainfall -999.00 in
Snow Depth Not available.
UV 0 out of 12
Pollen 3.90 out of 12
PM2.5 Moderate
Flu Activity Sporadic
METAR KCQT 211247Z AUTO 00000KT 7SM BKN014 19/16 A2989 RMK AO2 SLP120 T01890156

More Conditions Fewer Conditions

10-Day Weather Forecast

Almanac

Astronomy

Oct. 21, 2014 Rise Set
Actual Time 7:02 AM PDT 6:10 PM PDT
Civil Twilight 6:36 AM PDT 6:35 PM PDT
Nautical Twilight 6:07 AM PDT 7:04 PM PDT
Astronomical Twilight 5:38 AM PDT 7:33 PM PDT
Moon 4:56 AM PDT 5:02 PM PDT
Length of Visible Light 11h 59m
Length of Day
11h 08m
Tomorrow will be 2m 0s shorter.
Waning Crescent, 5% of the Moon is Illuminated
Today
Waning Crescent
Oct 23
New
Oct 30
First Quarter
Nov 6
Full
Nov 14
Last Quarter

Today's Extremes

State Highs State Lows

Community

WunderPhotos

Upload Photos

1,763,662 photos uploaded!

Nearby

Air Quality

  Air Quality AQ Index Pollutant
Yesterday Good
PM10
Yesterday Good
OZONE
Current Moderate
PM2.5
Tuesday Good
PM10
Tuesday Moderate
OZONE
Tuesday Good
CO
Tuesday Good
NO2

Snow Depth

Station Depth Elevation
Virginia Lakes Ridge 0 in 9200 ft
Leavitt Lake 1 in 9400 ft
Leavitt Meadows 1 in 7200 ft
Sonora Pass 0 in 8800 ft
Summit Meadow 1 in 9122 ft

Earthquake Activity

City Distance Mag. Time & Date
No recent earthquake activity has been reported nearby.
Minimum magnitude displayed is 2.5.

Coastal Water Temperatures

Place Temperature
Santa Monica Pier 69.1 °F
Los Angeles, CA 69.1 °F
La Jolla, CA 71.1 °F

Nearby Weather Stations